sensor_id;sensor_type;location;lat;lon;timestamp;pressure;altitude;pressure_sealevel;temperature;humidity
26807;BME280;14380;49.910;6.792;2024-02-21T00:00:15;99699.00;;;9.34;100.00
26807;BME280;14380;49.910;6.792;2024-02-21T00:02:42;99694.13;;;9.23;100.00
26807;BME280;14380;49.910;6.792;2024-02-21T00:05:09;99689.75;;;9.22;100.00
26807;BME280;14380;49.910;6.792;2024-02-21T00:07:35;99676.59;;;9.22;100.00
26807;BME280;14380;49.910;6.792;2024-02-21T00:10:02;99670.41;;;9.23;100.00
26807;BME280;14380;49.910;6.792;2024-02-21T00:12:29;99665.81;;;9.28;100.00
26807;BME280;14380;49.910;6.792;2024-02-21T00:14:57;99665.16;;;9.47;100.00
26807;BME280;14380;49.910;6.792;2024-02-21T00:17:24;99660.50;;;9.30;100.00
26807;BME280;14380;49.910;6.792;2024-02-21T00:19:51;99665.97;;;9.23;100.00
26807;BME280;14380;49.910;6.792;2024-02-21T00:22:19;99659.19;;;9.16;100.00
26807;BME280;14380;49.910;6.792;2024-02-21T00:24:45;99646.81;;;9.44;100.00
26807;BME280;14380;49.910;6.792;2024-02-21T00:27:12;99648.66;;;9.42;100.00
26807;BME280;14380;49.910;6.792;2024-02-21T00:29:38;99635.25;;;9.48;100.00
26807;BME280;14380;49.910;6.792;2024-02-21T00:32:07;99620.69;;;9.37;100.00
26807;BME280;14380;49.910;6.792;2024-02-21T00:34:33;99617.53;;;9.51;100.00
26807;BME280;14380;49.910;6.792;2024-02-21T00:37:00;99627.84;;;9.58;100.00
26807;BME280;14380;49.910;6.792;2024-02-21T00:39:27;99619.34;;;9.26;100.00
26807;BME280;14380;49.910;6.792;2024-02-21T00:41:53;99635.72;;;9.59;100.00
26807;BME280;14380;49.910;6.792;2024-02-21T00:44:20;99627.28;;;9.49;100.00
26807;BME280;14380;49.910;6.792;2024-02-21T00:46:47;99623.31;;;9.37;100.00
26807;BME280;14380;49.910;6.792;2024-02-21T00:49:15;99615.16;;;9.45;100.00
26807;BME280;14380;49.910;6.792;2024-02-21T00:51:41;99612.78;;;9.12;100.00
26807;BME280;14380;49.910;6.792;2024-02-21T00:54:08;99611.97;;;9.35;100.00
26807;BME280;14380;49.910;6.792;2024-02-21T00:56:34;99601.84;;;8.99;100.00
26807;BME280;14380;49.910;6.792;2024-02-21T00:59:01;99607.06;;;9.01;100.00
26807;BME280;14380;49.910;6.792;2024-02-21T01:01:27;99610.38;;;9.06;100.00
26807;BME280;14380;49.910;6.792;2024-02-21T01:03:54;99615.09;;;9.21;100.00
26807;BME280;14380;49.910;6.792;2024-02-21T01:06:22;99602.13;;;9.41;100.00
26807;BME280;14380;49.910;6.792;2024-02-21T01:08:49;99598.06;;;9.32;100.00
26807;BME280;14380;49.910;6.792;2024-02-21T01:11:15;99588.34;;;9.32;100.00
26807;BME280;14380;49.910;6.792;2024-02-21T01:13:42;99596.56;;;9.25;100.00
26807;BME280;14380;49.910;6.792;2024-02-21T01:16:09;99587.63;;;9.29;100.00
26807;BME280;14380;49.910;6.792;2024-02-21T01:18:37;99586.53;;;8.85;100.00
26807;BME280;14380;49.910;6.792;2024-02-21T01:21:04;99585.59;;;9.12;100.00
26807;BME280;14380;49.910;6.792;2024-02-21T01:23:33;99577.31;;;8.97;100.00
26807;BME280;14380;49.910;6.792;2024-02-21T01:26:00;99581.19;;;9.12;100.00
26807;BME280;14380;49.910;6.792;2024-02-21T01:28:26;99584.50;;;9.17;100.00
26807;BME280;14380;49.910;6.792;2024-02-21T01:30:53;99583.38;;;9.01;100.00
26807;BME280;14380;49.910;6.792;2024-02-21T01:33:19;99577.50;;;9.18;100.00
26807;BME280;14380;49.910;6.792;2024-02-21T01:35:46;99584.28;;;9.00;100.00
26807;BME280;14380;49.910;6.792;2024-02-21T01:38:13;99578.28;;;9.20;100.00
26807;BME280;14380;49.910;6.792;2024-02-21T01:40:41;99571.81;;;9.29;100.00
26807;BME280;14380;49.910;6.792;2024-02-21T01:43:15;99580.59;;;9.53;100.00
26807;BME280;14380;49.910;6.792;2024-02-21T01:45:42;99582.06;;;9.60;100.00
26807;BME280;14380;49.910;6.792;2024-02-21T01:48:09;99584.25;;;9.49;100.00
26807;BME280;14380;49.910;6.792;2024-02-21T01:50:35;99590.66;;;9.42;100.00
26807;BME280;14380;49.910;6.792;2024-02-21T01:53:03;99583.22;;;9.53;100.00
26807;BME280;14380;49.910;6.792;2024-02-21T01:55:29;99589.34;;;9.30;100.00
26807;BME280;14380;49.910;6.792;2024-02-21T01:57:58;99576.97;;;9.56;100.00
26807;BME280;14380;49.910;6.792;2024-02-21T02:00:25;99561.47;;;9.24;100.00
26807;BME280;14380;49.910;6.792;2024-02-21T02:02:51;99557.53;;;9.34;100.00
26807;BME280;14380;49.910;6.792;2024-02-21T02:05:19;99553.19;;;9.57;100.00
26807;BME280;14380;49.910;6.792;2024-02-21T02:07:46;99539.78;;;9.40;100.00
26807;BME280;14380;49.910;6.792;2024-02-21T02:10:13;99542.16;;;9.47;100.00
26807;BME280;14380;49.910;6.792;2024-02-21T02:12:39;99533.69;;;9.61;100.00
26807;BME280;14380;49.910;6.792;2024-02-21T02:15:08;99525.94;;;9.57;100.00
26807;BME280;14380;49.910;6.792;2024-02-21T02:17:35;99516.56;;;9.49;100.00
26807;BME280;14380;49.910;6.792;2024-02-21T02:20:01;99519.19;;;9.27;100.00
26807;BME280;14380;49.910;6.792;2024-02-21T02:22:31;99520.31;;;9.44;100.00
26807;BME280;14380;49.910;6.792;2024-02-21T02:25:01;99513.66;;;9.57;100.00
26807;BME280;14380;49.910;6.792;2024-02-21T02:27:28;99512.00;;;9.31;100.00
26807;BME280;14380;49.910;6.792;2024-02-21T02:29:54;99500.81;;;9.48;100.00
26807;BME280;14380;49.910;6.792;2024-02-21T02:32:21;99503.41;;;9.26;100.00
26807;BME280;14380;49.910;6.792;2024-02-21T02:34:47;99497.53;;;9.19;100.00
26807;BME280;14380;49.910;6.792;2024-02-21T02:37:14;99501.47;;;9.07;100.00
26807;BME280;14380;49.910;6.792;2024-02-21T02:39:40;99497.00;;;9.09;100.00
26807;BME280;14380;49.910;6.792;2024-02-21T02:42:09;99497.31;;;9.25;100.00
26807;BME280;14380;49.910;6.792;2024-02-21T02:44:35;99492.25;;;9.19;100.00
26807;BME280;14380;49.910;6.792;2024-02-21T02:47:02;99488.19;;;9.34;100.00
26807;BME280;14380;49.910;6.792;2024-02-21T02:49:29;99488.06;;;9.13;100.00
26807;BME280;14380;49.910;6.792;2024-02-21T02:51:56;99490.31;;;9.00;100.00
26807;BME280;14380;49.910;6.792;2024-02-21T02:54:22;99490.75;;;9.35;100.00
26807;BME280;14380;49.910;6.792;2024-02-21T02:56:50;99485.72;;;8.82;100.00
26807;BME280;14380;49.910;6.792;2024-02-21T02:59:18;99484.75;;;9.32;100.00
26807;BME280;14380;49.910;6.792;2024-02-21T03:01:45;99484.63;;;9.11;100.00
26807;BME280;14380;49.910;6.792;2024-02-21T03:04:11;99477.13;;;9.24;100.00
26807;BME280;14380;49.910;6.792;2024-02-21T03:06:38;99467.78;;;9.15;100.00
26807;BME280;14380;49.910;6.792;2024-02-21T03:09:06;99464.53;;;9.55;100.00
26807;BME280;14380;49.910;6.792;2024-02-21T03:11:34;99457.25;;;9.61;100.00
26807;BME280;14380;49.910;6.792;2024-02-21T03:14:00;99462.13;;;9.26;100.00
26807;BME280;14380;49.910;6.792;2024-02-21T03:16:30;99448.97;;;9.26;100.00
26807;BME280;14380;49.910;6.792;2024-02-21T03:18:56;99447.63;;;9.14;100.00
26807;BME280;14380;49.910;6.792;2024-02-21T03:21:23;99455.66;;;9.11;100.00
26807;BME280;14380;49.910;6.792;2024-02-21T03:23:50;99462.88;;;9.06;100.00
26807;BME280;14380;49.910;6.792;2024-02-21T03:26:16;99459.94;;;8.90;100.00
26807;BME280;14380;49.910;6.792;2024-02-21T03:28:43;99460.22;;;9.06;100.00
26807;BME280;14380;49.910;6.792;2024-02-21T03:31:11;99458.50;;;9.29;100.00
26807;BME280;14380;49.910;6.792;2024-02-21T03:33:42;99455.50;;;9.38;100.00
26807;BME280;14380;49.910;6.792;2024-02-21T03:36:13;99451.13;;;9.15;100.00
26807;BME280;14380;49.910;6.792;2024-02-21T03:38:39;99430.31;;;9.31;100.00
26807;BME280;14380;49.910;6.792;2024-02-21T03:41:08;99436.72;;;9.01;100.00
26807;BME280;14380;49.910;6.792;2024-02-21T03:43:37;99421.94;;;9.21;100.00
26807;BME280;14380;49.910;6.792;2024-02-21T03:46:04;99422.66;;;9.25;100.00
26807;BME280;14380;49.910;6.792;2024-02-21T03:48:31;99422.97;;;9.17;100.00
26807;BME280;14380;49.910;6.792;2024-02-21T03:50:59;99414.63;;;9.28;100.00
26807;BME280;14380;49.910;6.792;2024-02-21T03:53:26;99419.09;;;9.26;100.00
26807;BME280;14380;49.910;6.792;2024-02-21T03:55:53;99406.66;;;9.29;100.00
26807;BME280;14380;49.910;6.792;2024-02-21T03:58:20;99411.91;;;9.07;100.00
26807;BME280;14380;49.910;6.792;2024-02-21T04:00:47;99419.97;;;9.26;100.00
26807;BME280;14380;49.910;6.792;2024-02-21T04:03:13;99411.84;;;9.08;100.00
26807;BME280;14380;49.910;6.792;2024-02-21T04:05:40;99414.09;;;8.96;100.00
26807;BME280;14380;49.910;6.792;2024-02-21T04:08:08;99394.91;;;9.16;100.00
26807;BME280;14380;49.910;6.792;2024-02-21T04:10:35;99389.00;;;9.31;100.00
26807;BME280;14380;49.910;6.792;2024-02-21T04:13:03;99386.25;;;9.34;100.00
26807;BME280;14380;49.910;6.792;2024-02-21T04:15:30;99385.97;;;9.42;100.00
26807;BME280;14380;49.910;6.792;2024-02-21T04:17:57;99396.25;;;9.26;100.00
26807;BME280;14380;49.910;6.792;2024-02-21T04:20:24;99387.78;;;9.40;99.54
26807;BME280;14380;49.910;6.792;2024-02-21T04:22:54;99386.06;;;8.95;100.00
26807;BME280;14380;49.910;6.792;2024-02-21T04:25:24;99379.53;;;9.27;98.66
26807;BME280;14380;49.910;6.792;2024-02-21T04:27:50;99371.41;;;9.10;99.44
26807;BME280;14380;49.910;6.792;2024-02-21T04:30:17;99375.41;;;8.98;100.00
26807;BME280;14380;49.910;6.792;2024-02-21T04:32:44;99374.06;;;8.86;99.26
26807;BME280;14380;49.910;6.792;2024-02-21T04:35:10;99370.84;;;9.01;100.00
26807;BME280;14380;49.910;6.792;2024-02-21T04:37:37;99372.91;;;9.17;98.50
26807;BME280;14380;49.910;6.792;2024-02-21T04:40:05;99366.63;;;8.97;100.00
26807;BME280;14380;49.910;6.792;2024-02-21T04:42:33;99369.47;;;9.15;98.03
26807;BME280;14380;49.910;6.792;2024-02-21T04:45:00;99377.72;;;9.28;99.72
26807;BME280;14380;49.910;6.792;2024-02-21T04:47:27;99382.69;;;9.35;99.49
26807;BME280;14380;49.910;6.792;2024-02-21T04:49:53;99387.00;;;9.16;100.00
26807;BME280;14380;49.910;6.792;2024-02-21T04:52:20;99383.78;;;9.07;100.00
26807;BME280;14380;49.910;6.792;2024-02-21T04:54:47;99381.03;;;9.11;100.00
26807;BME280;14380;49.910;6.792;2024-02-21T04:57:14;99377.91;;;9.01;100.00
26807;BME280;14380;49.910;6.792;2024-02-21T04:59:44;99377.72;;;9.05;100.00
26807;BME280;14380;49.910;6.792;2024-02-21T05:02:11;99371.09;;;9.17;100.00
26807;BME280;14380;49.910;6.792;2024-02-21T05:04:37;99367.19;;;9.28;100.00
26807;BME280;14380;49.910;6.792;2024-02-21T05:07:05;99365.84;;;9.17;100.00
26807;BME280;14380;49.910;6.792;2024-02-21T05:09:32;99368.31;;;9.00;100.00
26807;BME280;14380;49.910;6.792;2024-02-21T05:11:59;99370.19;;;8.48;100.00
26807;BME280;14380;49.910;6.792;2024-02-21T05:14:26;99364.22;;;8.91;100.00
26807;BME280;14380;49.910;6.792;2024-02-21T05:16:55;99365.22;;;8.88;100.00
26807;BME280;14380;49.910;6.792;2024-02-21T05:19:21;99360.75;;;9.13;100.00
26807;BME280;14380;49.910;6.792;2024-02-21T05:21:48;99343.69;;;9.23;99.74
26807;BME280;14380;49.910;6.792;2024-02-21T05:24:14;99346.84;;;9.09;98.44
26807;BME280;14380;49.910;6.792;2024-02-21T05:26:41;99336.69;;;9.22;98.05
26807;BME280;14380;49.910;6.792;2024-02-21T05:29:08;99334.22;;;9.17;99.70
26807;BME280;14380;49.910;6.792;2024-02-21T05:31:54;99345.97;;;8.86;100.00
26807;BME280;14380;49.910;6.792;2024-02-21T05:34:23;99328.22;;;9.14;99.95
26807;BME280;14380;49.910;6.792;2024-02-21T05:36:49;99335.88;;;8.75;100.00
26807;BME280;14380;49.910;6.792;2024-02-21T05:39:17;99336.69;;;9.00;100.00
26807;BME280;14380;49.910;6.792;2024-02-21T05:41:43;99336.09;;;8.69;100.00
26807;BME280;14380;49.910;6.792;2024-02-21T05:44:10;99341.03;;;9.01;100.00
26807;BME280;14380;49.910;6.792;2024-02-21T05:46:37;99346.91;;;8.85;100.00
26807;BME280;14380;49.910;6.792;2024-02-21T05:49:04;99334.53;;;8.87;100.00
26807;BME280;14380;49.910;6.792;2024-02-21T05:51:34;99336.94;;;8.93;100.00
26807;BME280;14380;49.910;6.792;2024-02-21T05:54:01;99340.50;;;9.15;100.00
26807;BME280;14380;49.910;6.792;2024-02-21T05:56:27;99334.16;;;8.74;100.00
26807;BME280;14380;49.910;6.792;2024-02-21T05:58:54;99342.13;;;8.95;100.00
26807;BME280;14380;49.910;6.792;2024-02-21T06:01:21;99328.28;;;8.90;100.00
26807;BME280;14380;49.910;6.792;2024-02-21T06:03:48;99317.69;;;8.91;100.00
26807;BME280;14380;49.910;6.792;2024-02-21T06:06:15;99312.84;;;9.25;100.00
26807;BME280;14380;49.910;6.792;2024-02-21T06:08:43;99320.19;;;8.48;100.00
26807;BME280;14380;49.910;6.792;2024-02-21T06:11:09;99310.59;;;8.93;100.00
26807;BME280;14380;49.910;6.792;2024-02-21T06:13:38;99308.19;;;8.87;100.00
26807;BME280;14380;49.910;6.792;2024-02-21T06:16:06;99304.50;;;8.69;100.00
26807;BME280;14380;49.910;6.792;2024-02-21T06:18:35;99295.22;;;9.05;100.00
26807;BME280;14380;49.910;6.792;2024-02-21T06:21:03;99304.50;;;8.69;100.00
26807;BME280;14380;49.910;6.792;2024-02-21T06:23:30;99301.34;;;8.83;100.00
26807;BME280;14380;49.910;6.792;2024-02-21T06:25:58;99289.44;;;9.17;100.00
26807;BME280;14380;49.910;6.792;2024-02-21T06:28:25;99296.06;;;8.83;100.00
26807;BME280;14380;49.910;6.792;2024-02-21T06:30:52;99299.00;;;8.75;100.00
26807;BME280;14380;49.910;6.792;2024-02-21T06:33:20;99300.22;;;8.67;100.00
26807;BME280;14380;49.910;6.792;2024-02-21T06:35:50;99293.31;;;8.64;100.00
26807;BME280;14380;49.910;6.792;2024-02-21T06:38:18;99292.84;;;8.53;100.00
26807;BME280;14380;49.910;6.792;2024-02-21T06:40:45;99292.41;;;8.87;100.00
26807;BME280;14380;49.910;6.792;2024-02-21T06:43:17;99288.97;;;9.07;100.00
26807;BME280;14380;49.910;6.792;2024-02-21T06:45:44;99289.53;;;8.71;100.00
26807;BME280;14380;49.910;6.792;2024-02-21T06:48:13;99294.03;;;9.12;100.00
26807;BME280;14380;49.910;6.792;2024-02-21T06:50:39;99296.06;;;8.83;100.00
26807;BME280;14380;49.910;6.792;2024-02-21T06:53:06;99293.25;;;8.88;100.00
26807;BME280;14380;49.910;6.792;2024-02-21T06:55:33;99294.28;;;8.84;100.00
26807;BME280;14380;49.910;6.792;2024-02-21T06:58:00;99290.81;;;9.05;100.00
26807;BME280;14380;49.910;6.792;2024-02-21T07:00:28;99282.44;;;9.16;100.00
26807;BME280;14380;49.910;6.792;2024-02-21T07:02:55;99284.34;;;8.44;100.00
26807;BME280;14380;49.910;6.792;2024-02-21T07:05:23;99277.19;;;9.16;100.00
26807;BME280;14380;49.910;6.792;2024-02-21T07:07:50;99270.72;;;9.03;100.00
26807;BME280;14380;49.910;6.792;2024-02-21T07:10:18;99269.41;;;9.13;100.00
26807;BME280;14380;49.910;6.792;2024-02-21T07:12:44;99262.63;;;8.63;100.00
26807;BME280;14380;49.910;6.792;2024-02-21T07:15:11;99267.72;;;8.90;100.00
26807;BME280;14380;49.910;6.792;2024-02-21T07:17:39;99259.75;;;9.34;98.98
26807;BME280;14380;49.910;6.792;2024-02-21T07:20:07;99262.41;;;8.91;100.00
26807;BME280;14380;49.910;6.792;2024-02-21T07:22:34;99261.75;;;9.07;100.00
26807;BME280;14380;49.910;6.792;2024-02-21T07:25:00;99258.53;;;9.00;100.00
26807;BME280;14380;49.910;6.792;2024-02-21T07:27:27;99245.66;;;9.35;100.00
26807;BME280;14380;49.910;6.792;2024-02-21T07:29:56;99246.41;;;9.39;100.00
26807;BME280;14380;49.910;6.792;2024-02-21T07:32:23;99244.66;;;9.17;100.00
26807;BME280;14380;49.910;6.792;2024-02-21T07:34:52;99257.03;;;8.48;100.00
26807;BME280;14380;49.910;6.792;2024-02-21T07:37:20;99253.81;;;8.64;100.00
26807;BME280;14380;49.910;6.792;2024-02-21T07:39:46;99262.50;;;8.88;100.00
26807;BME280;14380;49.910;6.792;2024-02-21T07:42:13;99265.28;;;8.85;100.00
26807;BME280;14380;49.910;6.792;2024-02-21T07:44:41;99259.28;;;9.25;99.73
26807;BME280;14380;49.910;6.792;2024-02-21T07:47:07;99260.19;;;9.03;100.00
26807;BME280;14380;49.910;6.792;2024-02-21T07:49:40;99256.56;;;9.05;100.00
26807;BME280;14380;49.910;6.792;2024-02-21T07:52:09;99262.44;;;8.90;100.00
26807;BME280;14380;49.910;6.792;2024-02-21T07:54:35;99261.00;;;9.26;99.04
26807;BME280;14380;49.910;6.792;2024-02-21T07:57:02;99262.84;;;9.23;99.42
26807;BME280;14380;49.910;6.792;2024-02-21T07:59:29;99264.94;;;9.15;99.08
26807;BME280;14380;49.910;6.792;2024-02-21T08:01:56;99260.22;;;9.23;98.87
26807;BME280;14380;49.910;6.792;2024-02-21T08:04:23;99261.88;;;9.47;97.11
26807;BME280;14380;49.910;6.792;2024-02-21T08:06:51;99265.09;;;9.74;98.23
26807;BME280;14380;49.910;6.792;2024-02-21T08:09:20;99260.88;;;9.49;97.18
26807;BME280;14380;49.910;6.792;2024-02-21T08:11:46;99256.69;;;9.02;99.05
26807;BME280;14380;49.910;6.792;2024-02-21T08:14:13;99247.38;;;9.36;97.80
26807;BME280;14380;49.910;6.792;2024-02-21T08:16:41;99244.38;;;9.03;100.00
26807;BME280;14380;49.910;6.792;2024-02-21T08:19:08;99240.16;;;8.99;98.55
26807;BME280;14380;49.910;6.792;2024-02-21T08:21:35;99248.25;;;9.37;98.76
26807;BME280;14380;49.910;6.792;2024-02-21T08:24:02;99242.63;;;9.45;97.70
26807;BME280;14380;49.910;6.792;2024-02-21T08:26:31;99234.13;;;9.59;94.87
26807;BME280;14380;49.910;6.792;2024-02-21T08:28:57;99221.34;;;9.49;96.05
26807;BME280;14380;49.910;6.792;2024-02-21T08:31:26;99221.81;;;9.59;95.60
26807;BME280;14380;49.910;6.792;2024-02-21T08:33:56;99208.03;;;9.52;94.98
26807;BME280;14380;49.910;6.792;2024-02-21T08:36:27;99205.44;;;9.72;94.06
26807;BME280;14380;49.910;6.792;2024-02-21T08:38:54;99205.06;;;9.60;95.41
26807;BME280;14380;49.910;6.792;2024-02-21T08:41:21;99198.63;;;9.47;94.85
26807;BME280;14380;49.910;6.792;2024-02-21T08:43:50;99195.34;;;9.81;94.61
26807;BME280;14380;49.910;6.792;2024-02-21T08:46:16;99198.28;;;9.55;95.54
26807;BME280;14380;49.910;6.792;2024-02-21T08:48:43;99187.97;;;9.69;95.99
26807;BME280;14380;49.910;6.792;2024-02-21T08:51:11;99189.41;;;9.76;95.19
26807;BME280;14380;49.910;6.792;2024-02-21T08:53:38;99187.84;;;9.72;96.62
26807;BME280;14380;49.910;6.792;2024-02-21T08:56:05;99188.94;;;10.25;94.33
26807;BME280;14380;49.910;6.792;2024-02-21T08:58:32;99181.00;;;9.68;95.43
26807;BME280;14380;49.910;6.792;2024-02-21T09:01:01;99183.66;;;9.87;97.47
26807;BME280;14380;49.910;6.792;2024-02-21T09:03:29;99184.94;;;9.97;96.59
26807;BME280;14380;49.910;6.792;2024-02-21T09:05:57;99181.09;;;10.05;96.07
26807;BME280;14380;49.910;6.792;2024-02-21T09:08:23;99177.72;;;9.82;96.52
26807;BME280;14380;49.910;6.792;2024-02-21T09:10:50;99170.09;;;9.95;97.34
26807;BME280;14380;49.910;6.792;2024-02-21T09:13:17;99166.97;;;10.25;96.39
26807;BME280;14380;49.910;6.792;2024-02-21T09:15:44;99159.69;;;10.49;95.11
26807;BME280;14380;49.910;6.792;2024-02-21T09:18:12;99158.63;;;10.53;96.91
26807;BME280;14380;49.910;6.792;2024-02-21T09:20:39;99153.50;;;10.31;95.18
26807;BME280;14380;49.910;6.792;2024-02-21T09:23:06;99151.63;;;10.33;95.12
26807;BME280;14380;49.910;6.792;2024-02-21T09:25:33;99138.09;;;10.41;94.11
26807;BME280;14380;49.910;6.792;2024-02-21T09:28:01;99141.16;;;10.12;95.73
26807;BME280;14380;49.910;6.792;2024-02-21T09:30:28;99141.72;;;10.19;95.52
26807;BME280;14380;49.910;6.792;2024-02-21T09:32:55;99130.22;;;10.39;95.12
26807;BME280;14380;49.910;6.792;2024-02-21T09:35:25;99128.34;;;9.86;96.55
26807;BME280;14380;49.910;6.792;2024-02-21T09:37:53;99128.34;;;10.05;95.79
26807;BME280;14380;49.910;6.792;2024-02-21T09:40:20;99126.78;;;10.56;96.13
26807;BME280;14380;49.910;6.792;2024-02-21T09:42:48;99115.13;;;10.78;94.67
26807;BME280;14380;49.910;6.792;2024-02-21T09:45:19;99116.69;;;10.28;94.24
26807;BME280;14380;49.910;6.792;2024-02-21T09:47:52;99108.41;;;10.73;96.74
26807;BME280;14380;49.910;6.792;2024-02-21T09:50:27;99103.88;;;10.75;94.71
26807;BME280;14380;49.910;6.792;2024-02-21T09:52:56;99094.25;;;10.74;94.83
26807;BME280;14380;49.910;6.792;2024-02-21T09:55:23;99086.50;;;10.70;95.00
26807;BME280;14380;49.910;6.792;2024-02-21T09:57:53;99085.06;;;10.98;94.11
26807;BME280;14380;49.910;6.792;2024-02-21T10:00:20;99081.69;;;11.12;91.72
26807;BME280;14380;49.910;6.792;2024-02-21T10:02:48;99092.63;;;10.89;95.05
26807;BME280;14380;49.910;6.792;2024-02-21T10:05:15;99082.25;;;10.84;94.58
26807;BME280;14380;49.910;6.792;2024-02-21T10:07:44;99085.31;;;10.59;94.07
26807;BME280;14380;49.910;6.792;2024-02-21T10:10:11;99072.19;;;10.75;94.93
26807;BME280;14380;49.910;6.792;2024-02-21T10:12:48;99067.59;;;10.61;92.93
26807;BME280;14380;49.910;6.792;2024-02-21T10:15:20;99071.31;;;10.39;94.71
26807;BME280;14380;49.910;6.792;2024-02-21T10:17:47;99073.50;;;10.66;93.73
26807;BME280;14380;49.910;6.792;2024-02-21T10:20:14;99073.97;;;10.56;93.28
26807;BME280;14380;49.910;6.792;2024-02-21T10:22:41;99067.59;;;10.96;94.06
26807;BME280;14380;49.910;6.792;2024-02-21T10:25:10;99063.44;;;11.08;92.68
26807;BME280;14380;49.910;6.792;2024-02-21T10:27:37;99066.75;;;10.78;93.40
26807;BME280;14380;49.910;6.792;2024-02-21T10:30:06;99069.31;;;10.97;94.41
26807;BME280;14380;49.910;6.792;2024-02-21T10:32:33;99071.38;;;11.08;92.70
26807;BME280;14380;49.910;6.792;2024-02-21T10:35:01;99064.75;;;11.16;92.71
26807;BME280;14380;49.910;6.792;2024-02-21T10:37:30;99065.84;;;11.12;92.11
26807;BME280;14380;49.910;6.792;2024-02-21T10:39:57;99054.56;;;10.58;94.27
26807;BME280;14380;49.910;6.792;2024-02-21T10:42:29;99068.91;;;10.87;94.03
26807;BME280;14380;49.910;6.792;2024-02-21T10:45:00;99057.72;;;10.82;93.84
26807;BME280;14380;49.910;6.792;2024-02-21T10:47:32;99058.91;;;10.76;94.50
26807;BME280;14380;49.910;6.792;2024-02-21T10:50:03;99052.97;;;11.56;91.82
26807;BME280;14380;49.910;6.792;2024-02-21T10:52:41;99055.59;;;11.40;92.30
26807;BME280;14380;49.910;6.792;2024-02-21T10:55:17;99054.97;;;11.35;92.97
26807;BME280;14380;49.910;6.792;2024-02-21T10:57:48;99050.91;;;11.11;92.75
26807;BME280;14380;49.910;6.792;2024-02-21T11:00:17;99037.81;;;10.92;91.79
26807;BME280;14380;49.910;6.792;2024-02-21T11:02:44;99037.66;;;11.29;92.97
26807;BME280;14380;49.910;6.792;2024-02-21T11:05:13;99024.75;;;11.72;92.97
26807;BME280;14380;49.910;6.792;2024-02-21T11:07:40;99031.72;;;11.25;92.45
26807;BME280;14380;49.910;6.792;2024-02-21T11:10:20;99025.50;;;11.58;90.24
26807;BME280;14380;49.910;6.792;2024-02-21T11:12:48;99015.78;;;11.59;93.08
26807;BME280;14380;49.910;6.792;2024-02-21T11:15:15;99011.06;;;11.16;92.60
26807;BME280;14380;49.910;6.792;2024-02-21T11:17:42;99016.72;;;11.58;93.59
26807;BME280;14380;49.910;6.792;2024-02-21T11:20:20;99007.09;;;11.07;92.30
26807;BME280;14380;49.910;6.792;2024-02-21T11:22:58;98997.19;;;11.44;92.85
26807;BME280;14380;49.910;6.792;2024-02-21T11:25:24;98981.81;;;11.67;93.43
26807;BME280;14380;49.910;6.792;2024-02-21T11:28:00;98976.53;;;11.35;93.25
26807;BME280;14380;49.910;6.792;2024-02-21T11:30:29;98974.41;;;11.26;93.01
26807;BME280;14380;49.910;6.792;2024-02-21T11:33:00;98959.81;;;11.51;92.29
26807;BME280;14380;49.910;6.792;2024-02-21T11:35:31;98956.84;;;11.41;92.73
26807;BME280;14380;49.910;6.792;2024-02-21T11:38:07;98953.88;;;10.81;93.62
26807;BME280;14380;49.910;6.792;2024-02-21T11:40:38;98944.44;;;10.93;91.50
26807;BME280;14380;49.910;6.792;2024-02-21T11:43:07;98938.03;;;10.97;90.37
26807;BME280;14380;49.910;6.792;2024-02-21T11:45:33;98936.63;;;11.08;91.42
26807;BME280;14380;49.910;6.792;2024-02-21T11:48:00;98910.09;;;11.57;89.21
26807;BME280;14380;49.910;6.792;2024-02-21T11:50:29;98919.28;;;11.66;89.41
26807;BME280;14380;49.910;6.792;2024-02-21T11:52:57;98891.41;;;12.07;87.59
26807;BME280;14380;49.910;6.792;2024-02-21T11:55:23;98890.88;;;12.45;88.76
26807;BME280;14380;49.910;6.792;2024-02-21T11:57:50;98891.25;;;12.39;89.54
26807;BME280;14380;49.910;6.792;2024-02-21T12:00:21;98875.63;;;11.89;89.22
26807;BME280;14380;49.910;6.792;2024-02-21T12:02:50;98877.41;;;12.05;91.56
26807;BME280;14380;49.910;6.792;2024-02-21T12:05:18;98863.06;;;12.38;89.34
26807;BME280;14380;49.910;6.792;2024-02-21T12:07:46;98848.47;;;12.60;89.40
26807;BME280;14380;49.910;6.792;2024-02-21T12:10:13;98848.97;;;12.52;89.15
26807;BME280;14380;49.910;6.792;2024-02-21T12:12:40;98847.06;;;11.80;87.89
26807;BME280;14380;49.910;6.792;2024-02-21T12:15:08;98860.78;;;11.87;87.59
26807;BME280;14380;49.910;6.792;2024-02-21T12:17:37;98858.84;;;11.74;87.85
26807;BME280;14380;49.910;6.792;2024-02-21T12:20:04;98855.75;;;11.52;87.89
26807;BME280;14380;49.910;6.792;2024-02-21T12:22:35;98847.59;;;11.40;89.92
26807;BME280;14380;49.910;6.792;2024-02-21T12:25:03;98830.13;;;11.22;89.38
26807;BME280;14380;49.910;6.792;2024-02-21T12:27:29;98827.69;;;11.49;86.99
26807;BME280;14380;49.910;6.792;2024-02-21T12:29:56;98835.34;;;11.54;87.54
26807;BME280;14380;49.910;6.792;2024-02-21T12:32:23;98830.88;;;11.40;86.87
26807;BME280;14380;49.910;6.792;2024-02-21T12:34:51;98824.88;;;11.52;86.38
26807;BME280;14380;49.910;6.792;2024-02-21T12:37:17;98817.34;;;11.60;89.26
26807;BME280;14380;49.910;6.792;2024-02-21T12:39:45;98805.88;;;12.36;86.98
26807;BME280;14380;49.910;6.792;2024-02-21T12:42:11;98811.25;;;12.05;85.84
26807;BME280;14380;49.910;6.792;2024-02-21T12:44:38;98799.41;;;12.11;85.12
26807;BME280;14380;49.910;6.792;2024-02-21T12:47:05;98801.13;;;11.36;86.34
26807;BME280;14380;49.910;6.792;2024-02-21T12:49:33;98792.91;;;10.94;85.94
26807;BME280;14380;49.910;6.792;2024-02-21T12:52:01;98799.31;;;11.37;86.60
26807;BME280;14380;49.910;6.792;2024-02-21T12:54:28;98784.09;;;11.71;87.44
26807;BME280;14380;49.910;6.792;2024-02-21T12:56:56;98785.78;;;11.27;86.00
26807;BME280;14380;49.910;6.792;2024-02-21T12:59:22;98738.75;;;11.48;85.64
26807;BME280;14380;49.910;6.792;2024-02-21T13:01:51;98752.72;;;11.50;84.25
26807;BME280;14380;49.910;6.792;2024-02-21T13:04:18;98748.56;;;11.46;84.97